x

Newport, Or (nwpo3) Weather Station

2:00am - Sat 18th Aug 2018 All times are PDT. -7 hours from GMT.

  • Wind
    16mph, 20mph gusts
  • Air Temp 56°f
  • Sea Pressure 1023.7mb
  • Newport, Or
  • Newport, Or

More Historic Weather Station data

Upgrade to MSW Pro to gain access to the past 30 days of data for over 8000 Wavebouys and Weather Stations around the globe.

Join

Comparision Forecast

View Surf forecast
   
Sat 08/18 2:00am 16 20 mph 1023.7mb 56f
1:00am 14 17 mph 1023.9mb 58f
12:00am 8 9 mph 1024mb 57f
Fri 08/17 11:00pm 15 17 mph 1023.8mb 54f
10:00pm 11 13 mph 1023.9mb 55f
9:00pm 15 17 mph 1023.8mb 58f
8:00pm 18 21 mph 1023.5mb 55f
7:00pm 18 23 mph 1023.6mb 56f
6:00pm 11 13 mph 1023.9mb 55f
5:00pm 11 13 mph 1024.4mb 56f
4:00pm 14 15 mph 1024.8mb 55f
3:00pm 15 17 mph 1024.7mb 55f
2:00pm 14 17 mph 1024.8mb 56f
1:00pm 18 21 mph 1024.5mb 56f
12:00pm 17 18 mph 1024.8mb 56f
11:00am 11 13 mph 1025.1mb 56f
10:00am 9 10 mph 1024.8mb 57f
9:00am 3 6 mph 1024.9mb 56f
8:00am 2 2 mph 1024.8mb 53f
7:00am 2 2 mph 1024.4mb 51f
6:00am 2 3 mph 1023.9mb 52f
5:00am 1 2 mph 1023.5mb 53f
4:00am 5 6 mph 1023.2mb 54f
3:00am 7 8 mph 1023.3mb 55f
2:00am 7 8 mph 1023.3mb 55f
1:00am 9 10 mph 1023mb 54f
12:00am 8 10 mph 1022.8mb 54f
Thu 08/16 11:00pm 7 8 mph 1022.5mb 54f
10:00pm 8 10 mph 1022.3mb 55f
9:00pm 16 17 mph 1021.3mb 56f
8:00pm 15 17 mph 1020.9mb 56f
7:00pm 11 14 mph 1020.9mb 56f
6:00pm 16 18 mph 1020mb 56f
5:00pm 14 15 mph 1020.4mb 56f
4:00pm 15 17 mph 1020.1mb 56f
3:00pm 13 15 mph 1020.1mb 56f
2:00pm 14 15 mph 1020mb 56f
1:00pm 18 21 mph 1019.7mb 56f
12:00pm 13 15 mph 1019.6mb 56f
11:00am 14 16 mph 1019.5mb 58f
10:00am 11 14 mph 1019.3mb 56f
9:00am 11 13 mph 1019mb 57f
8:00am 11 14 mph 1018.7mb 56f
7:00am 16 17 mph 1018mb 57f
6:00am 15 17 mph 1017.6mb 56f
5:00am 5 6 mph 1017.6mb 56f
4:00am 8 9 mph 1017.3mb 56f
3:00am 7 7 mph 1017.1mb 57f
2:00am 2 3 mph 1016.9mb 57f
1:00am  -  0 mph 1016.7mb 57f
12:00am 1 2 mph 1016.5mb 56f
Wed 08/15 11:00pm 2 2 mph 1016.3mb 57f
10:00pm  -  1 mph 1016.1mb 56f
9:00pm 2 2 mph 1015.8mb 57f
8:00pm 3 5 mph 1015.2mb 57f
7:00pm 5 6 mph 1015.2mb 58f
6:00pm 3 5 mph 1015.2mb 58f
5:00pm 5 5 mph 1015.2mb 58f
4:00pm 3 5 mph 1015.2mb 59f
3:00pm 5 6 mph 1015.2mb 59f
2:00pm 5 6 mph 1015.2mb 59f
1:00pm 6 7 mph 1015.1mb 58f
12:00pm 6 7 mph 1014.9mb 58f
11:00am 6 6 mph 1014.8mb 58f
10:00am 5 6 mph 1014.8mb 58f
9:00am 3 5 mph 1014.6mb 57f
8:00am 5 6 mph 1014.7mb 56f
7:00am 2 3 mph 1014.1mb 56f
6:00am  -  1 mph 1013.9mb 56f
5:00am 2 2 mph 1013.7mb 56f
4:00am 7 7 mph 1013.7mb 57f
3:00am 6 7 mph 1013.5mb 57f
2:00am 8 9 mph 1013.5mb 56f
1:00am 7 8 mph 1013.4mb 56f
12:00am 10 11 mph 1013.3mb 57f
Tue 08/14 11:00pm 8 9 mph 1013mb 57f
10:00pm 8 10 mph 1012.9mb 57f
9:00pm 7 9 mph 1012.4mb 57f
8:00pm 7 8 mph 1012mb 57f
7:00pm 13 15 mph 1012mb 57f
6:00pm 11 13 mph 1011.9mb 56f
5:00pm 7 9 mph 1012.1mb 57f
4:00pm 7 9 mph 1012.4mb 58f
3:00pm 5 7 mph 1012.6mb 58f
1:00pm 3 5 mph 1013mb 60f
12:00pm 3 5 mph 1013.3mb 60f
11:00am 6 7 mph 1013.4mb 58f